Time;durP1;ratioP1;P1;durP2;ratioP2;P2;SDS_P1;SDS_P2;PMS_P1;PMS_P2;Temp;Humidity;BMP_temperature;BMP_pressure;BME280_temperature;BME280_humidity;BME280_pressure;Samples;Min_cycle;Max_cycle;Signal;HPM_P1;HPM_P2
2022/08/29 04:01:06;;;;;;;10.50;7.40;;;16.20;99.90;;;;;;5678759;23;21020;-75
2022/08/29 04:03:33;;;;;;;9.53;8.27;;;16.20;99.90;;;;;;4948598;28;20464;-75
2022/08/29 04:06:00;;;;;;;9.30;7.20;;;16.10;99.90;;;;;;4947687;28;20470;-74
2022/08/29 04:08:26;;;;;;;9.33;7.63;;;16.10;99.90;;;;;;4948537;28;20470;-75
2022/08/29 04:10:53;;;;;;;14.73;7.30;;;16.10;99.90;;;;;;4947715;28;21016;-75
2022/08/29 04:13:20;;;;;;;12.33;7.07;;;16.10;99.90;;;;;;4948092;29;20479;-75
2022/08/29 04:15:47;;;;;;;8.40;6.83;;;16.10;99.90;;;;;;4947497;29;20984;-75
2022/08/29 04:18:16;;;;;;;9.30;7.27;;;16.00;99.90;;;;;;4948441;29;20468;-74
2022/08/29 04:20:44;;;;;;;9.63;7.03;;;16.00;99.90;;;;;;4947966;28;20857;-75
2022/08/29 04:23:12;;;;;;;12.73;7.27;;;16.00;99.90;;;;;;4947844;29;20457;-75
2022/08/29 04:25:40;;;;;;;8.87;7.27;;;16.00;99.90;;;;;;4947327;28;20465;-75
2022/08/29 04:28:09;;;;;;;11.97;7.80;;;16.00;99.90;;;;;;4948046;28;20473;-75
2022/08/29 04:30:37;;;;;;;10.10;6.70;;;16.00;99.90;;;;;;4947879;28;20482;-75
2022/08/29 04:33:04;;;;;;;9.07;7.60;;;15.90;99.90;;;;;;4947723;29;20454;-75
2022/08/29 04:35:34;;;;;;;12.27;7.53;;;15.90;99.90;;;;;;4947243;29;20457;-76
2022/08/29 04:38:01;;;;;;;9.40;6.80;;;15.90;99.90;;;;;;4947638;29;20497;-75
2022/08/29 04:40:28;;;;;;;10.10;7.23;;;15.90;99.90;;;;;;4948068;28;20473;-75
2022/08/29 04:42:54;;;;;;;10.67;7.30;;;15.90;99.90;;;;;;4948067;29;21196;-75
2022/08/29 04:45:22;;;;;;;14.17;7.67;;;15.90;99.90;;;;;;4947433;29;20457;-78
2022/08/29 04:47:49;;;;;;;9.43;6.83;;;15.90;99.90;;;;;;4947957;29;20461;-76
2022/08/29 04:50:18;;;;;;;15.50;8.30;;;15.90;99.90;;;;;;4948030;28;20462;-76
2022/08/29 04:52:47;;;;;;;9.77;7.33;;;15.90;99.90;;;;;;4947503;29;20469;-75
2022/08/29 04:55:16;;;;;;;10.33;7.17;;;15.90;99.90;;;;;;4948448;29;20461;-79
2022/08/29 04:57:43;;;;;;;12.00;7.63;;;15.80;99.90;;;;;;4950047;29;20660;-79
2022/08/29 05:00:13;;;;;;;10.30;8.20;;;15.80;99.90;;;;;;4950867;29;20480;-79
2022/08/29 05:02:41;;;;;;;13.30;8.20;;;15.80;99.90;;;;;;4952787;29;20493;-79
2022/08/29 05:05:10;;;;;;;9.03;7.20;;;15.80;99.90;;;;;;4953007;29;20557;-79
2022/08/29 05:07:37;;;;;;;9.07;8.07;;;15.80;99.90;;;;;;4955154;29;20465;-79
2022/08/29 05:10:12;;;;;;;10.30;7.33;;;15.80;99.90;;;;;;4952397;29;20979;-79
2022/08/29 05:12:39;;;;;;;13.23;8.37;;;15.80;99.90;;;;;;4950101;29;20523;-79
2022/08/29 05:15:07;;;;;;;10.80;8.77;;;15.80;99.90;;;;;;4950969;29;20470;-79
2022/08/29 05:17:34;;;;;;;11.30;7.60;;;15.80;99.90;;;;;;4951233;29;20457;-79
2022/08/29 05:20:01;;;;;;;9.97;7.93;;;15.80;99.90;;;;;;4952140;28;20461;-79
2022/08/29 05:22:28;;;;;;;11.57;7.97;;;15.80;99.90;;;;;;4951661;28;20556;-79
2022/08/29 05:24:56;;;;;;;11.37;7.77;;;15.80;99.90;;;;;;4952195;29;20892;-79
2022/08/29 05:27:24;;;;;;;12.00;7.77;;;15.80;99.90;;;;;;4953128;29;20528;-79
2022/08/29 05:29:52;;;;;;;10.60;7.63;;;15.80;99.90;;;;;;4953384;29;20468;-79
2022/08/29 05:32:20;;;;;;;13.03;7.63;;;15.80;99.90;;;;;;4952376;28;20838;-79
2022/08/29 05:34:48;;;;;;;13.60;7.47;;;15.80;99.90;;;;;;4952554;29;20488;-79
2022/08/29 05:37:18;;;;;;;12.10;8.00;;;15.80;99.90;;;;;;4952709;28;20946;-79
2022/08/29 05:39:46;;;;;;;11.53;8.10;;;15.80;99.90;;;;;;4953183;29;20461;-79
2022/08/29 05:42:13;;;;;;;10.93;7.87;;;15.80;99.90;;;;;;4953625;28;20561;-79
2022/08/29 05:44:41;;;;;;;13.20;7.63;;;15.80;99.90;;;;;;4952950;29;20465;-79
2022/08/29 05:47:10;;;;;;;11.80;7.70;;;15.80;99.90;;;;;;4952947;29;20465;-79
2022/08/29 05:49:38;;;;;;;8.60;7.40;;;15.80;99.90;;;;;;4952778;29;20469;-79
2022/08/29 05:52:06;;;;;;;12.20;7.00;;;15.80;99.90;;;;;;4953001;28;20466;-79
2022/08/29 05:54:36;;;;;;;11.80;7.00;;;15.80;99.90;;;;;;4953302;29;20457;-79
2022/08/29 05:57:03;;;;;;;13.20;7.80;;;15.80;99.90;;;;;;4953934;29;20471;-79
2022/08/29 05:59:30;;;;;;;8.77;6.40;;;15.80;99.90;;;;;;4955424;28;20479;-79
2022/08/29 06:01:58;;;;;;;10.93;8.20;;;15.90;99.90;;;;;;4954970;28;20564;-79
2022/08/29 06:04:25;;;;;;;15.57;7.00;;;15.90;99.90;;;;;;4953527;29;20741;-79
2022/08/29 06:06:54;;;;;;;8.80;6.43;;;15.90;99.90;;;;;;4954492;29;20545;-79
2022/08/29 06:09:21;;;;;;;9.30;7.77;;;15.90;99.90;;;;;;4954723;29;20465;-79
2022/08/29 06:11:49;;;;;;;11.97;8.00;;;16.00;99.90;;;;;;4953451;28;20532;-79
2022/08/29 06:14:17;;;;;;;9.67;8.03;;;16.00;99.90;;;;;;4953980;29;20493;-79
2022/08/29 06:16:44;;;;;;;13.17;7.77;;;16.00;99.90;;;;;;4953483;29;20468;-80
2022/08/29 06:19:12;;;;;;;10.10;7.30;;;16.10;99.90;;;;;;4954011;29;20457;-79
2022/08/29 06:21:39;;;;;;;11.23;7.60;;;16.10;99.90;;;;;;4954975;28;20501;-79
2022/08/29 06:24:07;;;;;;;10.10;7.90;;;16.10;99.90;;;;;;4953919;29;20980;-79
2022/08/29 06:26:34;;;;;;;13.80;8.57;;;16.10;99.90;;;;;;4955194;29;20466;-79
2022/08/29 06:29:04;;;;;;;11.03;8.60;;;16.10;99.90;;;;;;4961072;29;20473;-79
2022/08/29 06:31:30;;;;;;;14.33;8.27;;;16.10;99.90;;;;;;4966119;28;20530;-79
2022/08/29 06:33:59;;;;;;;16.10;8.50;;;16.10;99.90;;;;;;4965508;28;20449;-79
2022/08/29 06:36:29;;;;;;;9.43;7.00;;;16.10;99.90;;;;;;4974718;29;20456;-79
2022/08/29 06:38:56;;;;;;;10.93;7.80;;;16.20;99.90;;;;;;4974785;29;20463;-79
2022/08/29 06:41:23;;;;;;;8.90;7.73;;;16.20;99.90;;;;;;4974184;28;20485;-79
2022/08/29 06:43:51;;;;;;;20.83;8.33;;;16.20;99.90;;;;;;4973922;29;20460;-79
2022/08/29 06:46:23;;;;;;;11.90;7.27;;;16.30;99.90;;;;;;4974423;29;20458;-79
2022/08/29 06:48:51;;;;;;;8.67;6.60;;;16.30;99.90;;;;;;4974968;29;20736;-79
2022/08/29 06:51:18;;;;;;;11.20;7.40;;;16.30;99.90;;;;;;4970505;28;21052;-79
2022/08/29 06:53:46;;;;;;;11.63;7.80;;;16.40;99.90;;;;;;4954102;28;20461;-79
2022/08/29 06:56:17;;;;;;;12.17;7.63;;;16.50;99.90;;;;;;4953517;29;20472;-80
2022/08/29 06:58:44;;;;;;;16.67;7.10;;;16.50;99.90;;;;;;4954090;29;20465;-80
2022/08/29 07:01:14;;;;;;;13.90;7.77;;;16.60;99.90;;;;;;4951749;28;20500;-80
2022/08/29 07:03:42;;;;;;;14.50;6.73;;;16.60;99.90;;;;;;4952532;29;20470;-80
2022/08/29 07:06:09;;;;;;;12.87;6.77;;;16.70;99.90;;;;;;4951890;29;20833;-80
2022/08/29 07:08:37;;;;;;;10.37;7.80;;;16.70;99.90;;;;;;4952749;29;20465;-80
2022/08/29 07:11:05;;;;;;;10.10;7.37;;;16.70;99.90;;;;;;4952358;28;20481;-80
2022/08/29 07:13:33;;;;;;;13.53;7.70;;;16.80;99.90;;;;;;4953175;29;20465;-80
2022/08/29 07:16:00;;;;;;;11.13;6.83;;;16.90;99.90;;;;;;4951663;29;20503;-80
2022/08/29 07:18:27;;;;;;;8.43;7.20;;;16.90;99.90;;;;;;4952549;29;20469;-79
2022/08/29 07:20:54;;;;;;;10.57;7.30;;;16.90;99.90;;;;;;4953341;28;20477;-80
2022/08/29 07:23:21;;;;;;;11.20;7.20;;;17.00;99.90;;;;;;4952405;29;20505;-80
2022/08/29 07:25:48;;;;;;;8.70;6.57;;;17.10;99.90;;;;;;4951877;28;21021;-80
2022/08/29 07:28:16;;;;;;;11.87;7.00;;;17.20;99.90;;;;;;4951864;29;20965;-80
2022/08/29 07:30:43;;;;;;;7.60;6.33;;;17.20;99.90;;;;;;4951875;28;21085;-80
2022/08/29 07:33:10;;;;;;;13.00;6.60;;;17.40;99.90;;;;;;4952112;29;20465;-80
2022/08/29 07:35:36;;;;;;;10.40;6.90;;;17.40;99.90;;;;;;4951124;29;20464;-80
2022/08/29 07:38:04;;;;;;;11.03;6.63;;;17.60;99.90;;;;;;4952047;29;20457;-79
2022/08/29 07:40:31;;;;;;;9.90;6.30;;;17.60;99.90;;;;;;4952946;28;20540;-79
2022/08/29 07:42:58;;;;;;;10.27;6.93;;;17.70;99.90;;;;;;4953238;28;20496;-79
2022/08/29 07:45:26;;;;;;;9.83;6.90;;;17.80;99.90;;;;;;4951579;28;20828;-79
2022/08/29 07:47:53;;;;;;;8.20;6.40;;;17.90;99.90;;;;;;4952977;29;20461;-79
2022/08/29 07:50:20;;;;;;;12.33;6.73;;;18.00;99.90;;;;;;4954276;28;20461;-79
2022/08/29 07:52:47;;;;;;;8.43;5.97;;;18.10;99.90;;;;;;4953498;29;20546;-79
2022/08/29 07:55:14;;;;;;;10.13;6.00;;;18.20;99.90;;;;;;4952540;29;20540;-79
2022/08/29 07:57:40;;;;;;;11.80;6.50;;;18.20;99.90;;;;;;4952890;29;20495;-79
2022/08/29 08:00:09;;;;;;;8.30;6.60;;;18.30;99.90;;;;;;4953633;29;20917;-80
2022/08/29 08:02:39;;;;;;;9.07;6.80;;;18.40;99.90;;;;;;4954428;28;20562;-80
2022/08/29 08:05:07;;;;;;;9.77;5.53;;;18.50;99.90;;;;;;4955523;29;20461;-79
2022/08/29 08:07:33;;;;;;;12.60;5.73;;;18.60;99.90;;;;;;4951972;29;20462;-80
2022/08/29 08:10:00;;;;;;;9.97;6.37;;;18.80;99.90;;;;;;4952483;29;20465;-79
2022/08/29 08:12:28;;;;;;;7.93;5.87;;;18.90;99.90;;;;;;4951804;28;20477;-80
2022/08/29 08:14:55;;;;;;;7.37;5.87;;;19.00;99.90;;;;;;4952346;28;20470;-80
2022/08/29 08:17:23;;;;;;;12.50;6.40;;;19.10;99.90;;;;;;4952148;28;20556;-80
2022/08/29 08:19:51;;;;;;;9.40;5.50;;;19.20;99.90;;;;;;4952807;29;20830;-80
2022/08/29 08:22:18;;;;;;;9.77;6.40;;;19.40;99.90;;;;;;4952670;28;20501;-80
2022/08/29 08:24:45;;;;;;;7.30;5.90;;;19.50;99.90;;;;;;4952687;29;20457;-80
2022/08/29 08:27:12;;;;;;;9.53;6.67;;;19.60;99.90;;;;;;4953023;28;20549;-80
2022/08/29 08:29:39;;;;;;;10.77;5.87;;;19.80;99.90;;;;;;4952208;29;20468;-80
2022/08/29 08:32:06;;;;;;;12.33;5.60;;;19.90;99.90;;;;;;4952663;28;20565;-80
2022/08/29 08:34:33;;;;;;;8.33;6.03;;;20.10;99.90;;;;;;4953256;29;20524;-80
2022/08/29 08:37:01;;;;;;;12.23;6.60;;;20.20;99.90;;;;;;4953581;29;20560;-80
2022/08/29 08:39:28;;;;;;;8.50;6.10;;;20.30;99.90;;;;;;4953361;29;20729;-81
2022/08/29 08:41:57;;;;;;;8.57;5.90;;;20.50;99.90;;;;;;4953802;28;20493;-81
2022/08/29 08:44:52;;;;;;;9.23;6.30;;;20.70;99.90;;;;;;4952905;29;20458;-81
2022/08/29 08:47:25;;;;;;;7.43;5.70;;;20.90;99.90;;;;;;4950829;28;20481;-81
2022/08/29 08:49:56;;;;;;;10.17;5.90;;;21.20;99.90;;;;;;4954112;29;20461;-81
2022/08/29 08:52:30;;;;;;;10.10;5.93;;;21.30;99.90;;;;;;4953278;28;21013;-81
2022/08/29 08:55:01;;;;;;;9.10;5.90;;;21.40;99.90;;;;;;4952963;29;20462;-81
2022/08/29 08:57:36;;;;;;;10.63;6.13;;;21.60;99.90;;;;;;4951639;28;20468;-81
2022/08/29 09:00:06;;;;;;;6.73;4.50;;;21.70;99.90;;;;;;4952775;29;20881;-81
2022/08/29 09:02:41;;;;;;;8.20;5.57;;;21.90;99.90;;;;;;4952900;28;20501;-82
2022/08/29 09:05:23;;;;;;;9.40;6.00;;;22.10;99.90;;;;;;4953158;29;20469;-81
2022/08/29 09:08:02;;;;;;;7.20;5.90;;;22.40;99.90;;;;;;4954128;29;20467;-81
2022/08/29 09:10:42;;;;;;;7.67;5.87;;;22.80;99.90;;;;;;4953687;28;20445;-81
2022/08/29 09:13:21;;;;;;;8.13;6.10;;;22.90;99.90;;;;;;4953436;28;20776;-81
2022/08/29 09:15:51;;;;;;;8.47;5.40;;;23.00;99.90;;;;;;4953351;29;20690;-81
2022/08/29 09:18:27;;;;;;;8.90;5.80;;;23.10;99.90;;;;;;4953633;29;20485;-81
2022/08/29 09:20:55;;;;;;;8.17;5.77;;;23.20;99.90;;;;;;4954352;28;20489;-81
2022/08/29 09:23:28;;;;;;;10.87;6.30;;;23.40;99.90;;;;;;4954434;28;20528;-82
2022/08/29 09:25:55;;;;;;;10.20;6.37;;;23.70;99.90;;;;;;4952817;29;20461;-82
2022/08/29 09:28:24;;;;;;;9.73;5.40;;;23.80;99.90;;;;;;4953015;29;20505;-82
2022/08/29 09:31:21;;;;;;;8.67;5.73;;;23.80;99.90;;;;;;4953130;28;20478;-81
2022/08/29 09:33:51;;;;;;;11.60;6.20;;;23.90;99.90;;;;;;4953226;29;20482;-81
2022/08/29 09:36:39;;;;;;;9.57;5.60;;;24.10;99.90;;;;;;4952485;29;20465;-81
2022/08/29 09:39:17;;;;;;;10.93;5.57;;;24.10;99.90;;;;;;4954804;29;20866;-82
2022/08/29 09:41:46;;;;;;;8.43;5.60;;;24.20;99.90;;;;;;4953700;28;20489;-81
2022/08/29 09:44:18;;;;;;;7.13;5.43;;;24.40;99.90;;;;;;4953809;29;20493;-81
2022/08/29 09:46:45;;;;;;;8.10;5.30;;;24.50;99.90;;;;;;4953549;29;20461;-81
2022/08/29 09:49:15;;;;;;;12.47;5.50;;;24.70;99.90;;;;;;4954165;29;20539;-81
2022/08/29 09:51:44;;;;;;;7.07;5.20;;;24.80;99.90;;;;;;4953224;28;20488;-81
2022/08/29 09:54:17;;;;;;;9.83;4.67;;;25.00;99.90;;;;;;4953219;28;20636;-81
2022/08/29 09:56:52;;;;;;;5.30;4.13;;;25.10;99.90;;;;;;4953561;29;20831;-82
2022/08/29 09:59:24;;;;;;;8.80;5.20;;;25.20;99.90;;;;;;4953310;29;20548;-82
2022/08/29 10:02:07;;;;;;;6.63;4.93;;;25.40;99.90;;;;;;4953621;28;20493;-82
2022/08/29 10:04:40;;;;;;;8.07;5.40;;;25.60;99.90;;;;;;4953803;29;20748;-82
2022/08/29 10:07:10;;;;;;;7.83;5.10;;;25.90;99.90;;;;;;4954466;29;20465;-82
2022/08/29 10:09:38;;;;;;;6.67;5.07;;;26.50;99.90;;;;;;4956370;28;20462;-82
2022/08/29 10:12:12;;;;;;;6.77;5.00;;;26.40;99.90;;;;;;4957770;28;20505;-82
2022/08/29 10:14:44;;;;;;;6.10;5.20;;;26.40;99.90;;;;;;4956537;29;20441;-82
2022/08/29 10:20:06;;;;;;;7.50;4.63;;;26.40;99.90;;;;;;4957003;29;20884;-82
2022/08/29 10:22:39;;;;;;;5.00;4.13;;;26.50;99.90;;;;;;4956903;28;20507;-82
2022/08/29 10:25:17;;;;;;;7.43;4.90;;;26.60;99.90;;;;;;4957267;29;20453;-82
2022/08/29 10:27:49;;;;;;;10.30;5.13;;;26.80;99.90;;;;;;4957298;29;20474;-82
2022/08/29 10:30:20;;;;;;;7.57;4.70;;;27.10;99.90;;;;;;4957972;28;20436;-82
2022/08/29 10:33:09;;;;;;;11.40;5.20;;;27.20;99.90;;;;;;4957242;29;20446;-82
2022/08/29 10:35:40;;;;;;;9.70;5.03;;;27.30;99.90;;;;;;4955438;29;20528;-82
2022/08/29 10:38:16;;;;;;;9.13;4.67;;;27.20;99.90;;;;;;4956604;29;20547;-83
2022/08/29 10:40:48;;;;;;;8.13;4.60;;;27.20;99.90;;;;;;4957049;28;20764;-83
2022/08/29 10:43:32;;;;;;;6.40;4.37;;;27.20;99.90;;;;;;4956390;29;20560;-83
2022/08/29 10:46:15;;;;;;;8.47;4.40;;;27.40;99.90;;;;;;4955106;29;20449;-82
2022/08/29 10:48:50;;;;;;;7.90;4.70;;;28.10;99.90;;;;;;4956050;29;20936;-82
2022/08/29 10:51:24;;;;;;;9.73;5.00;;;28.00;99.90;;;;;;4957270;28;20520;-82
2022/08/29 10:53:58;;;;;;;9.70;4.83;;;27.80;99.90;;;;;;4956516;28;20472;-82
2022/08/29 10:56:31;;;;;;;7.93;4.80;;;27.90;99.90;;;;;;4956530;29;20450;-83
2022/08/29 10:59:07;;;;;;;12.03;5.27;;;28.00;99.90;;;;;;4956829;29;20820;-83
2022/08/29 11:01:40;;;;;;;6.63;4.40;;;28.20;99.90;;;;;;4957172;28;20488;-83
2022/08/29 11:04:16;;;;;;;7.30;4.80;;;28.40;99.90;;;;;;4956274;29;21022;-83
2022/08/29 11:06:50;;;;;;;9.13;4.97;;;28.70;99.90;;;;;;4956906;29;20461;-83
2022/08/29 11:09:21;;;;;;;5.30;4.10;;;28.90;99.90;;;;;;4956624;29;20461;-82
2022/08/29 11:12:04;;;;;;;8.00;4.20;;;29.10;99.90;;;;;;4956987;28;20512;-82
2022/08/29 11:14:37;;;;;;;7.77;4.17;;;29.10;99.90;;;;;;4956735;29;20465;-82
2022/08/29 11:17:07;;;;;;;9.33;4.50;;;29.30;99.90;;;;;;4957984;29;20446;-82
2022/08/29 11:19:48;;;;;;;9.23;4.20;;;29.40;99.90;;;;;;4958245;29;20453;-82
2022/08/29 11:22:20;;;;;;;6.10;4.20;;;29.50;99.90;;;;;;4956225;28;21011;-82
2022/08/29 11:24:56;;;;;;;5.60;4.30;;;29.60;99.90;;;;;;4956780;29;20444;-82
2022/08/29 11:27:34;;;;;;;7.77;4.90;;;29.50;99.90;;;;;;4957320;29;20457;-82
2022/08/29 11:30:06;;;;;;;7.43;4.37;;;29.60;99.90;;;;;;4956376;29;20441;-82
2022/08/29 11:32:38;;;;;;;6.73;4.47;;;29.60;99.90;;;;;;4957410;28;20484;-82
2022/08/29 11:35:12;;;;;;;6.90;4.00;;;29.70;99.90;;;;;;4956354;29;20446;-82
2022/08/29 11:38:16;;;;;;;7.23;5.23;;;29.90;99.90;;;;;;4956210;29;20985;-82
2022/08/29 11:41:00;;;;;;;6.67;4.30;;;30.00;99.90;;;;;;4957256;28;20517;-82
2022/08/29 11:43:35;;;;;;;7.43;4.60;;;30.00;99.90;;;;;;4955947;29;20996;-82
2022/08/29 11:46:05;;;;;;;7.40;4.43;;;30.00;99.90;;;;;;4956525;29;20442;-83
2022/08/29 11:48:36;;;;;;;8.30;4.40;;;30.00;99.90;;;;;;4956092;29;20461;-82
2022/08/29 11:51:29;;;;;;;7.13;4.50;;;30.10;99.90;;;;;;4956613;28;20835;-83
2022/08/29 11:53:56;;;;;;;6.10;4.30;;;30.00;99.90;;;;;;4948911;28;20460;-83
2022/08/29 11:56:26;;;;;;;6.47;4.30;;;30.00;99.90;;;;;;4956050;29;20457;-83
2022/08/29 11:58:56;;;;;;;5.70;3.97;;;30.00;99.90;;;;;;4955368;28;20525;-83
2022/08/29 12:01:55;;;;;;;7.07;4.73;;;29.90;99.90;;;;;;4955108;28;21006;-83
2022/08/29 12:04:53;;;;;;;5.90;4.40;;;29.60;99.90;;;;;;4954659;29;20604;-82
2022/08/29 12:07:31;;;;;;;6.77;4.27;;;29.30;99.90;;;;;;4955275;28;20448;-83
2022/08/29 12:10:01;;;;;;;7.60;4.67;;;29.40;99.90;;;;;;4955797;29;20442;-83
2022/08/29 12:12:40;;;;;;;7.33;4.93;;;29.50;99.90;;;;;;4958418;28;20858;-82
2022/08/29 12:15:52;;;;;;;10.27;4.40;;;29.60;99.90;;;;;;4957214;29;20918;-82
2022/08/29 12:18:46;;;;;;;9.40;4.60;;;29.70;99.90;;;;;;4894837;29;20480;-82
2022/08/29 12:21:47;;;;;;;7.40;5.00;;;29.70;99.90;;;;;;4955266;28;20516;-82
2022/08/29 12:24:30;;;;;;;6.80;4.57;;;29.70;99.90;;;;;;4956115;29;20481;-82
2022/08/29 12:26:58;;;;;;;7.33;4.80;;;29.60;99.90;;;;;;4955596;29;20811;-82
2022/08/29 12:29:29;;;;;;;7.57;4.80;;;29.50;99.90;;;;;;4955363;29;20461;-82
2022/08/29 12:32:22;;;;;;;6.57;4.70;;;29.40;99.90;;;;;;4954907;28;20888;-82
2022/08/29 12:35:16;;;;;;;6.87;4.90;;;29.30;99.90;;;;;;4954935;29;20445;-81
2022/08/29 12:37:57;;;;;;;6.27;4.73;;;29.10;99.90;;;;;;4955376;29;20592;-81
2022/08/29 12:40:46;;;;;;;8.03;5.20;;;29.00;99.90;;;;;;4955158;28;20449;-82
2022/08/29 12:43:32;;;;;;;9.87;4.77;;;28.90;99.90;;;;;;4955032;28;20492;-81
2022/08/29 12:46:01;;;;;;;5.73;4.20;;;28.80;99.90;;;;;;4955766;29;20469;-81
2022/08/29 12:48:34;;;;;;;8.27;5.10;;;28.80;99.90;;;;;;4955995;29;20541;-81
2022/08/29 12:51:03;;;;;;;13.20;4.77;;;28.70;99.90;;;;;;4955134;28;20482;-81
2022/08/29 12:53:35;;;;;;;5.80;4.40;;;28.70;99.90;;;;;;4955570;29;20469;-81
2022/08/29 12:56:12;;;;;;;6.70;4.83;;;28.50;99.90;;;;;;4954683;29;20893;-81
2022/08/29 12:58:41;;;;;;;8.00;4.67;;;28.40;99.90;;;;;;4955662;28;20625;-82
2022/08/29 13:01:26;;;;;;;6.23;4.37;;;28.30;99.90;;;;;;4956149;28;20877;-82
2022/08/29 13:03:58;;;;;;;5.47;4.10;;;28.30;99.90;;;;;;4956291;29;20860;-82
2022/08/29 13:06:27;;;;;;;7.53;4.50;;;28.40;99.90;;;;;;4956674;29;20603;-82
2022/08/29 13:08:54;;;;;;;7.17;4.50;;;28.40;99.90;;;;;;4956943;29;20463;-82
2022/08/29 13:11:24;;;;;;;5.70;4.07;;;28.40;99.90;;;;;;4958172;28;20481;-82
2022/08/29 13:13:51;;;;;;;5.47;4.03;;;28.60;99.90;;;;;;4958581;29;20533;-82
2022/08/29 13:16:27;;;;;;;5.23;3.97;;;28.70;99.90;;;;;;4960439;29;20464;-82
2022/08/29 13:18:54;;;;;;;4.90;3.70;;;28.70;99.90;;;;;;4973766;28;20460;-83
2022/08/29 13:21:24;;;;;;;6.50;4.40;;;28.70;99.90;;;;;;4973733;28;20474;-83
2022/08/29 13:24:02;;;;;;;8.40;4.70;;;28.70;99.90;;;;;;4973311;28;20541;-82
2022/08/29 13:26:32;;;;;;;4.70;3.90;;;28.60;99.90;;;;;;4973076;28;20501;-82
2022/08/29 13:29:21;;;;;;;7.47;4.43;;;28.80;99.90;;;;;;4969941;28;20525;-82
2022/08/29 13:32:09;;;;;;;6.77;4.17;;;28.90;99.90;;;;;;4953347;28;20509;-82
2022/08/29 13:34:36;;;;;;;8.30;4.47;;;29.00;99.90;;;;;;4953246;29;20461;-82
2022/08/29 13:37:06;;;;;;;7.50;4.03;;;29.20;99.90;;;;;;4953452;29;20465;-83
2022/08/29 13:39:43;;;;;;;6.03;3.60;;;29.30;99.90;;;;;;4953902;28;20489;-83
2022/08/29 13:42:23;;;;;;;8.10;3.87;;;29.30;99.90;;;;;;4953651;28;21024;-83
2022/08/29 13:45:10;;;;;;;6.87;4.60;;;29.40;99.90;;;;;;4954893;28;20608;-83
2022/08/29 13:47:55;;;;;;;10.30;4.57;;;29.60;99.90;;;;;;4957301;29;20457;-83
2022/08/29 13:50:23;;;;;;;7.07;4.73;;;29.70;99.90;;;;;;4958018;28;20438;-83
2022/08/29 13:52:54;;;;;;;5.50;4.50;;;29.80;99.90;;;;;;4957633;29;20475;-80
2022/08/29 13:55:23;;;;;;;7.60;4.00;;;29.90;99.90;;;;;;4957804;29;20462;-82
2022/08/29 13:57:54;;;;;;;6.93;4.03;;;29.90;99.90;;;;;;4957759;29;20464;-82
2022/08/29 14:00:22;;;;;;;5.80;3.83;;;29.90;99.90;;;;;;4956971;28;20749;-82
2022/08/29 14:02:49;;;;;;;6.20;3.83;;;29.90;99.90;;;;;;4957856;29;20470;-83
2022/08/29 14:05:17;;;;;;;6.80;4.07;;;29.90;99.90;;;;;;4956821;29;20564;-82
2022/08/29 14:07:45;;;;;;;7.93;4.50;;;30.00;99.90;;;;;;4957878;29;21022;-83
2022/08/29 14:10:15;;;;;;;6.50;4.23;;;30.00;99.90;;;;;;4956599;28;20473;-82
2022/08/29 14:12:43;;;;;;;4.50;3.87;;;29.90;99.90;;;;;;4957207;29;20467;-82
2022/08/29 14:15:11;;;;;;;6.47;4.20;;;29.70;99.90;;;;;;4956951;29;20470;-82
2022/08/29 14:17:40;;;;;;;5.30;3.97;;;29.50;99.90;;;;;;4958549;29;20536;-80
2022/08/29 14:20:09;;;;;;;5.00;3.80;;;29.30;99.90;;;;;;4957858;29;20702;-82
2022/08/29 14:22:37;;;;;;;6.60;4.20;;;29.10;99.90;;;;;;4958216;28;20997;-82
2022/08/29 14:25:04;;;;;;;7.07;4.27;;;29.10;99.90;;;;;;4957007;28;20501;-82
2022/08/29 14:27:32;;;;;;;5.27;4.20;;;29.00;99.90;;;;;;4958912;29;20465;-79
2022/08/29 14:30:00;;;;;;;10.50;4.60;;;29.00;99.90;;;;;;4958413;29;20463;-79
2022/08/29 14:32:27;;;;;;;7.90;4.83;;;29.00;99.90;;;;;;4957853;28;20492;-79
2022/08/29 14:34:54;;;;;;;6.70;4.20;;;29.00;99.90;;;;;;4957743;29;20460;-81
2022/08/29 14:37:21;;;;;;;7.60;4.27;;;29.00;99.90;;;;;;4957441;29;20461;-81
2022/08/29 14:39:48;;;;;;;6.90;4.60;;;29.00;99.90;;;;;;4958441;29;20969;-81
2022/08/29 14:42:15;;;;;;;5.50;4.13;;;29.20;99.90;;;;;;4958046;28;20496;-81
2022/08/29 14:44:42;;;;;;;7.53;3.73;;;29.30;99.90;;;;;;4957502;29;20501;-81
2022/08/29 14:47:10;;;;;;;7.73;4.37;;;29.50;99.90;;;;;;4958064;29;20537;-81
2022/08/29 14:49:37;;;;;;;4.53;3.97;;;29.60;99.90;;;;;;4958380;29;20477;-81
2022/08/29 14:52:05;;;;;;;4.20;3.80;;;29.70;99.90;;;;;;4958535;28;21005;-81
2022/08/29 14:54:32;;;;;;;7.63;3.80;;;29.70;99.90;;;;;;4957924;28;20462;-81
2022/08/29 14:56:59;;;;;;;4.87;3.97;;;29.80;99.90;;;;;;4957993;29;20461;-81
2022/08/29 14:59:26;;;;;;;6.67;3.73;;;29.80;99.90;;;;;;4957326;29;20909;-81
2022/08/29 15:01:54;;;;;;;5.00;3.83;;;30.00;99.90;;;;;;4957894;28;20879;-81
2022/08/29 15:04:23;;;;;;;8.40;5.00;;;30.10;99.90;;;;;;4956873;29;20497;-81
2022/08/29 15:06:50;;;;;;;5.97;4.27;;;30.20;99.90;;;;;;4957826;29;20473;-81
2022/08/29 15:09:17;;;;;;;6.30;3.90;;;30.30;99.90;;;;;;4957657;29;20584;-81
2022/08/29 15:11:43;;;;;;;4.90;4.00;;;30.40;99.90;;;;;;4957768;28;20496;-81
2022/08/29 15:14:10;;;;;;;6.07;3.90;;;30.50;99.90;;;;;;4958435;29;20500;-81
2022/08/29 15:16:38;;;;;;;5.27;3.93;;;30.60;99.90;;;;;;4957905;29;20903;-81
2022/08/29 15:19:05;;;;;;;6.40;3.87;;;30.60;99.90;;;;;;4958477;29;20461;-81
2022/08/29 15:21:33;;;;;;;8.20;3.60;;;30.70;99.90;;;;;;4958456;28;20477;-81
2022/08/29 15:24:00;;;;;;;8.20;3.63;;;30.80;99.90;;;;;;4958641;29;20505;-81
2022/08/29 15:26:27;;;;;;;7.20;4.00;;;30.80;99.90;;;;;;4958812;29;20457;-82
2022/08/29 15:28:54;;;;;;;5.00;3.67;;;30.90;99.90;;;;;;4960899;29;20468;-81
2022/08/29 15:31:21;;;;;;;7.23;4.30;;;31.10;99.90;;;;;;4961438;28;20918;-81
2022/08/29 15:33:48;;;;;;;6.60;3.80;;;31.10;99.90;;;;;;4961538;29;20466;-81
2022/08/29 15:36:15;;;;;;;4.40;3.47;;;31.20;99.90;;;;;;4956781;29;20465;-81
2022/08/29 15:38:43;;;;;;;7.00;3.87;;;31.30;99.90;;;;;;4956807;29;20745;-81
2022/08/29 15:41:10;;;;;;;4.70;3.60;;;31.30;99.90;;;;;;4957097;28;20481;-81
2022/08/29 15:43:37;;;;;;;4.60;3.37;;;31.40;99.90;;;;;;4957035;29;20461;-81
2022/08/29 15:46:05;;;;;;;7.20;3.97;;;31.40;99.90;;;;;;4956464;29;20492;-81
2022/08/29 15:48:32;;;;;;;4.30;3.60;;;31.50;99.90;;;;;;4956693;29;20474;-80
2022/08/29 15:50:58;;;;;;;6.10;3.90;;;31.40;99.90;;;;;;4954734;28;20989;-81
2022/08/29 15:53:25;;;;;;;8.73;3.67;;;31.20;99.90;;;;;;4955738;29;20868;-81
2022/08/29 15:55:53;;;;;;;4.17;3.73;;;31.20;99.90;;;;;;4955170;29;20529;-81
2022/08/29 15:58:20;;;;;;;5.33;3.80;;;31.10;99.90;;;;;;4954489;28;20761;-81
2022/08/29 16:00:47;;;;;;;7.93;4.10;;;31.10;99.90;;;;;;4953870;28;20489;-71
2022/08/29 16:03:14;;;;;;;5.80;3.93;;;31.00;99.90;;;;;;4948555;29;20465;-71
2022/08/29 16:05:41;;;;;;;5.60;4.17;;;31.00;99.90;;;;;;4947419;29;21018;-72
2022/08/29 16:08:09;;;;;;;6.00;3.67;;;31.00;99.90;;;;;;4947706;28;20969;-71
2022/08/29 16:10:36;;;;;;;5.00;4.00;;;30.90;99.90;;;;;;4948568;28;20485;-71
2022/08/29 16:13:06;;;;;;;4.07;3.67;;;30.80;99.90;;;;;;4948117;29;20470;-72
2022/08/29 16:15:34;;;;;;;6.10;4.13;;;30.70;99.90;;;;;;4948058;29;20457;-72
2022/08/29 16:18:02;;;;;;;5.00;3.80;;;30.60;99.90;;;;;;4947924;29;20469;-72
2022/08/29 16:20:30;;;;;;;6.50;4.10;;;30.50;99.90;;;;;;4946262;28;20468;-71
2022/08/29 16:22:57;;;;;;;8.27;4.20;;;30.50;99.90;;;;;;4948457;29;20871;-71
2022/08/29 16:25:25;;;;;;;7.40;4.53;;;30.50;99.90;;;;;;4947285;29;20500;-71
2022/08/29 16:27:52;;;;;;;6.33;4.27;;;30.40;99.90;;;;;;4948173;29;20983;-71
2022/08/29 16:30:21;;;;;;;5.07;3.97;;;30.40;99.90;;;;;;4946306;28;20464;-71
2022/08/29 16:32:50;;;;;;;6.53;4.40;;;30.30;99.90;;;;;;4948224;29;20480;-72
2022/08/29 16:35:18;;;;;;;5.73;4.17;;;30.30;99.90;;;;;;4947159;29;20489;-72
2022/08/29 16:37:45;;;;;;;7.00;4.00;;;30.10;99.90;;;;;;4947937;29;20465;-72
2022/08/29 16:40:16;;;;;;;4.63;3.93;;;30.10;99.90;;;;;;4947780;28;20848;-72
2022/08/29 16:42:45;;;;;;;8.23;4.50;;;30.10;99.90;;;;;;4947969;29;20878;-72
2022/08/29 16:45:14;;;;;;;6.50;3.93;;;30.00;99.90;;;;;;4947329;29;20504;-72
2022/08/29 16:47:42;;;;;;;8.43;4.87;;;29.90;99.90;;;;;;4947720;29;20958;-72
2022/08/29 16:50:10;;;;;;;4.90;3.50;;;29.90;99.90;;;;;;4947800;29;20974;-72
2022/08/29 16:52:38;;;;;;;6.33;3.97;;;29.70;99.90;;;;;;4947444;28;20529;-70
2022/08/29 16:55:06;;;;;;;6.03;4.20;;;29.70;99.90;;;;;;4946832;29;20474;-70
2022/08/29 16:57:33;;;;;;;4.53;3.60;;;29.60;99.90;;;;;;4947781;28;20461;-70
2022/08/29 17:00:00;;;;;;;6.33;4.00;;;29.60;99.90;;;;;;4947717;29;20465;-72
2022/08/29 17:02:28;;;;;;;5.20;3.90;;;29.50;99.90;;;;;;4947551;28;20497;-72
2022/08/29 17:04:56;;;;;;;4.53;3.87;;;29.40;99.90;;;;;;4946555;29;21040;-72